For More Information Regarding This Station Thornlie Station

Station Historical Data
 
Daily Summary for April 19, 2014 Units:  Metric    English   Both
« Previous Day
Next Day »
Daily Weekly Monthly Yearly Custom
  Current: High: Low: Average:
Temperature: 25.1 °C 26.9 °C 15 °C 19.9 °C
Dew Point: 11.3 °C 12.5 °C 8.3 °C 10.8 °C
Humidity: 42% 75% 31% 58%
Wind Speed: 9.7km/h 11.3km/h 0km/h 5.5km/h
Wind Gust: 22.5km/h 22.5km/h - -
WindWSW - - SSW
Pressure: 1014.1 hPa 1018.2 hPa 1014.1 hPa -
Precipitation: 0 mm      
Historical Graphs
 
 
Tabular Data for April 19, 2014
Time Temperature Dew Point Pressure Wind Wind Speed Wind Gust Humidity Rainfall Rate (Hourly) solar Conditions
00:29 18.5 °C 11.8 °C 1018.2 hPa South 4.8 km/h 11.3 km/h 65% 0 mm WeatherDisplay:10.37 W/m2 CLR
00:59 18.2 °C 11.7 °C 1018.2 hPa South 3.2 km/h 9.7 km/h 66% 0 mm WeatherDisplay:10.37 W/m2 CLR
01:29 17.9 °C 11.7 °C 1018.2 hPa Calm   9.7 km/h 67% 0 mm WeatherDisplay:10.37 W/m2 CLR
01:59 17.6 °C 11.4 °C 1018.2 hPa South 3.2 km/h 8 km/h 67% 0 mm WeatherDisplay:10.37 W/m2 CLR
02:29 17.1 °C 11.2 °C 1018.2 hPa SSW 4.8 km/h 9.7 km/h 68% 0 mm WeatherDisplay:10.37 W/m2 CLR
02:59 17 °C 11.1 °C 1017.2 hPa Calm   9.7 km/h 68% 0 mm WeatherDisplay:10.37 W/m2 CLR
03:29 16.8 °C 11.1 °C 1017.2 hPa Calm   8 km/h 69% 0 mm WeatherDisplay:10.37 W/m2 CLR
03:59 16.5 °C 11 °C 1017.2 hPa South 4.8 km/h 11.3 km/h 70% 0 mm WeatherDisplay:10.37 W/m2 CLR
04:29 16 °C 10.6 °C 1018.2 hPa South 4.8 km/h 9.7 km/h 70% 0 mm WeatherDisplay:10.37 W/m2 CLR
04:59 15.8 °C 10.6 °C 1018.2 hPa Calm   8 km/h 71% 0 mm WeatherDisplay:10.37 W/m2 CLR
05:29 15.6 °C 10.3 °C 1017.2 hPa Calm   6.4 km/h 71% 0 mm WeatherDisplay:10.37 W/m2 CLR
05:59 15.4 °C 10.4 °C 1018.2 hPa South 4.8 km/h 11.3 km/h 72% 0 mm WeatherDisplay:10.37 W/m2 CLR
06:29 15.3 °C 10.3 °C 1018.2 hPa Calm   8 km/h 72% 0 mm WeatherDisplay:10.37 W/m2 CLR
06:59 15 °C 10 °C 1018.2 hPa South 3.2 km/h 8 km/h 72% 0 mm WeatherDisplay:10.37 W/m2 CLR
07:29 15.3 °C 10.7 °C 1018.2 hPa South 4.8 km/h 8 km/h 74% 0 mm WeatherDisplay:10.37 W/m2 CLR
07:59 15.6 °C 11 °C 1018.2 hPa WSW 4.8 km/h 11.3 km/h 74% 0 mm WeatherDisplay:10.37 W/m2 CLR
08:29 16.4 °C 12 °C 1018.2 hPa South 3.2 km/h 9.7 km/h 75% 0 mm WeatherDisplay:10.37 W/m2 CLR
08:59 17.6 °C 12.5 °C 1018.2 hPa South 4.8 km/h 11.3 km/h 72% 0 mm WeatherDisplay:10.37 W/m2 CLR
09:29 19 °C 12.5 °C 1018.2 hPa SSW 8 km/h 12.9 km/h 66% 0 mm WeatherDisplay:10.37 W/m2 CLR
09:59 19.9 °C 11.9 °C 1018.2 hPa SW 9.7 km/h 16.1 km/h 60% 0 mm WeatherDisplay:10.37 W/m2 CLR
10:29 21 °C 11.9 °C 1017.2 hPa SSW 9.7 km/h 17.7 km/h 56% 0 mm WeatherDisplay:10.37 W/m2 CLR
10:59 22.4 °C 11.4 °C 1017.2 hPa SSW 8 km/h 20.9 km/h 50% 0 mm WeatherDisplay:10.37 W/m2 CLR
11:29 23.6 °C 10.3 °C 1016.1 hPa SSW 8 km/h 20.9 km/h 43% 0 mm WeatherDisplay:10.37 W/m2 CLR
11:59 24.9 °C 10.4 °C 1016.1 hPa South 8 km/h 19.3 km/h 40% 0 mm WeatherDisplay:10.37 W/m2 CLR
12:29 25.6 °C 9 °C 1015.1 hPa SW 9.7 km/h 19.3 km/h 35% 0 mm WeatherDisplay:10.37 W/m2 CLR
12:59 26.5 °C 8.9 °C 1015.1 hPa South 9.7 km/h 19.3 km/h 33% 0 mm WeatherDisplay:10.37 W/m2 CLR
13:29 26.8 °C 8.3 °C 1014.1 hPa SW 9.7 km/h 19.3 km/h 31% 0 mm WeatherDisplay:10.37 W/m2 CLR
13:59 26.9 °C 8.3 °C 1014.1 hPa SW 4.8 km/h 19.3 km/h 31% 0 mm WeatherDisplay:10.37 W/m2 CLR
14:29 26.9 °C 9.2 °C 1014.1 hPa SW 8 km/h 22.5 km/h 33% 0 mm WeatherDisplay:10.37 W/m2 CLR
14:59 26.5 °C 10.6 °C 1014.1 hPa West 9.7 km/h 22.5 km/h 37% 0 mm WeatherDisplay:10.37 W/m2 CLR
15:29 26 °C 11.7 °C 1014.1 hPa West 11.3 km/h 20.9 km/h 41% 0 mm WeatherDisplay:10.37 W/m2 CLR
15:59 25.1 °C 11.3 °C 1014.1 hPa WSW 9.7 km/h 22.5 km/h 42% 0 mm WeatherDisplay:10.37 W/m2 CLR
Compliments of Weather Underground